Home > Products > Valid Products > TAF

000
FTUS45 KLKN 281727
TAFEKO
TAF
KEKO 281727Z 2818/2918 06005KT P6SM SCT120
     FM281900 26008KT P6SM VCSH SCT070
     FM290100 VRB05KT P6SM BKN080
     FM291700 25009KT P6SM VCTS SCT060CB BKN090=



000
FTUS45 KLKN 281727
TAFTPH
TAF
KTPH 281727Z 2818/2918 20010G20KT P6SM BKN120
     FM290400 35010KT P6SM SCT120=



000
FTUS45 KLKN 281727
TAFWMC
TAF
KWMC 281727Z 2818/2918 03010KT P6SM FEW120
     FM291700 26009KT P6SM FEW100=



000
FTUS45 KLKN 281727
TAFELY
TAF
KELY 281727Z 2818/2918 17006KT P6SM BKN100
     FM282000 20009KT P6SM -SHRA VCTS BKN070CB
     FM290400 17007KT P6SM BKN080=



000
FTUS45 KLKN 272326
TAFTPH
TAF
KTPH 272326Z 2800/2824 30010G20KT P6SM BKN100
     FM280500 36010KT P6SM BKN100
     FM281900 20010G19KT P6SM SCT080 BKN130=



000
FTUS45 KLKN 271120
TAFWMC
TAF
KWMC 271120Z 2712/2812 VRB03KT P6SM FEW100
     FM271800 30010G20KT P6SM SCT100
     FM280000 34007KT P6SM SKC=



000
FTUS45 KLKN 271120
TAFELY
TAF
KELY 271120Z 2712/2812 17006KT P6SM SCT120
     FM271800 30006KT P6SM BKN080
     FM280400 VRB05KT P6SM SKC=



000
FTUS45 KLKN 271120
TAFEKO
TAF
KEKO 271120Z 2712/2812 VRB05KT P6SM SCT100
     FM272000 27010G20KT P6SM BKN080
     FM280100 31007KT P6SM SCT080=



000
FTUS45 KLKN 271120
TAFTPH
TAF
KTPH 271120Z 2712/2812 36011KT P6SM FEW120
     FM272200 33010G20KT P6SM SCT100
     FM280000 35010KT P6SM BKN100=



000
FTUS45 KLKN 252320
TAFWMC
TAF
KWMC 252320Z 2600/2624 18015KT P6SM -SHRA SCT040 BKN070
     FM260200 01005KT P6SM VCSH SCT070 BKN100
     FM260600 33007KT P6SM SCT070 SCT120
     FM261800 31010G16KT P6SM SCT070=



000
FTUS45 KLKN 252320
TAFEKO
TAF
KEKO 252320Z 2600/2624 32006KT P6SM -SHRA VCTS SCT045CB BKN060
     FM260300 VRB05KT P6SM -SHRA BKN050 BKN080
     FM260900 VRB05KT P6SM SCT050 BKN100
     FM261800 29010G16KT P6SM SCT060 SCT120=



000
FTUS45 KLKN 252320
TAFELY
TAF
KELY 252320Z 2600/2624 VRB06KT P6SM -SHRA SCT040 BKN060
     FM260500 33006KT P6SM -SHRA BKN050 BKN080
     FM261000 33006KT P6SM VCSH SCT040 BKN070
     FM261800 35007KT P6SM -SHRA VCTS BKN040CB BKN070=



000
FTUS45 KLKN 252320
TAFTPH
TAF
KTPH 252320Z 2600/2624 31011KT P6SM VCTS SCT060CB BKN080
     FM260300 35015KT P6SM -SHRA BKN060 BKN100
     FM260600 33013KT P6SM SCT060 SCT120
     FM261800 33015G25KT P6SM SCT080 SCT150=



    US Dept of Commerce
    National Oceanic and Atmospheric Administration
    National Weather Service
    1325 East West Highway
    Silver Spring, MD 20910
    Page Author: NWS Internet Services Team
Disclaimer
Information Quality
Credits
Glossary
Privacy Policy
Freedom of Information Act (FOIA)
About Us
Career Opportunities